createdAt,value
2023-10-12T00:06:19.446Z,21.5
2023-10-12T00:16:22.122Z,21.5
2023-10-12T00:26:24.519Z,21.5
2023-10-12T00:36:27.071Z,21.5
2023-10-12T00:46:29.400Z,21.5
2023-10-12T00:56:31.458Z,21.5
2023-10-12T01:06:33.847Z,21.5
2023-10-12T01:16:35.932Z,21.5
2023-10-12T01:26:37.858Z,21.5
2023-10-12T01:46:41.881Z,21.4
2023-10-12T01:56:43.903Z,21.4
2023-10-12T02:06:45.739Z,21.4
2023-10-12T02:26:50.168Z,21.4
2023-10-12T02:46:54.426Z,21.3
2023-10-12T03:06:58.123Z,21.3
2023-10-12T03:27:02.629Z,21.2
2023-10-12T03:47:06.618Z,21.2
2023-10-12T03:57:08.888Z,21.2
2023-10-12T04:17:13.490Z,21.2
2023-10-12T04:27:16.038Z,21.1
2023-10-12T04:37:17.954Z,21.1
2023-10-12T04:57:21.894Z,21.1
2023-10-12T06:37:44.192Z,21
2023-10-12T07:58:01.355Z,21.2
2023-10-12T09:48:31.724Z,21.7
2023-10-12T10:18:37.478Z,21.4
2023-10-12T10:38:42.236Z,21.6
2023-10-12T10:49:07.393Z,21.5
2023-10-12T11:08:48.924Z,21.7
2023-10-12T11:18:51.334Z,21.7
2023-10-12T11:38:56.423Z,21.6
2023-10-12T11:48:58.772Z,21.6
2023-10-12T11:59:00.986Z,21.5
2023-10-12T12:19:05.536Z,21.6
2023-10-12T12:29:08.102Z,21.7
2023-10-12T12:39:10.301Z,21.7
2023-10-12T12:49:12.407Z,21.6
2023-10-12T12:59:14.024Z,21.6
2023-10-12T13:09:16.280Z,21.6
2023-10-12T13:19:18.680Z,21.5
2023-10-12T13:29:20.609Z,21.6
2023-10-12T13:39:22.343Z,21.5
2023-10-12T13:49:24.125Z,21.5
2023-10-12T14:09:33.617Z,21.5
2023-10-12T14:19:30.438Z,21.5
2023-10-12T14:29:32.744Z,21.5
2023-10-12T14:39:35.114Z,21.5
2023-10-12T14:49:37.296Z,21.4
2023-10-12T14:59:39.007Z,21.4
2023-10-12T15:09:41.718Z,21.4
2023-10-12T15:19:44.349Z,21.3
2023-10-12T15:29:46.363Z,21.3
2023-10-12T15:39:48.883Z,21.2
2023-10-12T15:49:51.178Z,21.2
2023-10-12T15:59:53.195Z,21.2
2023-10-12T16:09:55.924Z,21.1
2023-10-12T16:19:57.983Z,21.1
2023-10-12T16:30:01.144Z,21.1
2023-10-12T16:40:02.744Z,21.1
2023-10-12T16:50:05.019Z,21
2023-10-12T17:00:07.300Z,21
2023-10-12T17:20:11.330Z,21
2023-10-12T17:30:13.065Z,21
2023-10-12T17:40:15.826Z,21
2023-10-12T17:50:17.528Z,20.9
2023-10-12T18:00:19.600Z,20.9
2023-10-12T18:10:22.136Z,20.9
2023-10-12T18:20:24.482Z,20.9
2023-10-12T18:30:26.782Z,20.9
2023-10-12T18:50:31.226Z,20.9
2023-10-12T19:10:35.738Z,20.9
2023-10-12T19:20:38.272Z,20.9
2023-10-12T19:30:40.659Z,20.9
2023-10-12T19:40:42.949Z,20.9
2023-10-12T19:50:45.506Z,20.8
2023-10-12T20:00:47.855Z,20.8
2023-10-12T20:10:50.413Z,20.9
2023-10-12T20:20:52.436Z,20.8
2023-10-12T20:30:54.902Z,20.8
2023-10-12T20:40:57.230Z,20.8
2023-10-12T20:50:59.752Z,20.8
2023-10-12T21:01:01.829Z,20.8
2023-10-12T21:11:03.573Z,20.8
2023-10-12T21:21:05.849Z,20.8
2023-10-12T21:31:07.656Z,20.8
2023-10-12T21:41:10.087Z,20.8
2023-10-12T21:51:12.089Z,20.8
2023-10-12T22:01:14.693Z,20.8
2023-10-12T22:11:17.206Z,20.8
2023-10-12T22:21:19.901Z,20.8
2023-10-12T22:31:21.678Z,20.8
2023-10-12T22:41:23.749Z,20.8
2023-10-12T22:51:25.969Z,20.8
2023-10-12T23:11:30.444Z,20.8
2023-10-12T23:21:32.634Z,20.8
2023-10-12T23:31:34.757Z,20.8
2023-10-12T23:41:36.814Z,20.8
2023-10-12T23:51:39.498Z,20.8
